sensor_id;sensor_type;location;lat;lon;timestamp;P1;durP1;ratioP1;P2;durP2;ratioP2
5876;SDS011;2964;42.144;24.730;2023-02-28T00:00:40;17.23;;;11.33;;
5876;SDS011;2964;42.144;24.730;2023-02-28T00:03:08;13.63;;;10.93;;
5876;SDS011;2964;42.144;24.730;2023-02-28T00:05:34;16.20;;;11.70;;
5876;SDS011;2964;42.144;24.730;2023-02-28T00:08:01;14.67;;;12.10;;
5876;SDS011;2964;42.144;24.730;2023-02-28T00:10:28;13.93;;;11.50;;
5876;SDS011;2964;42.144;24.730;2023-02-28T00:12:59;12.90;;;11.57;;
5876;SDS011;2964;42.144;24.730;2023-02-28T00:15:27;17.20;;;11.93;;
5876;SDS011;2964;42.144;24.730;2023-02-28T00:17:55;15.73;;;11.67;;
5876;SDS011;2964;42.144;24.730;2023-02-28T00:20:22;16.80;;;11.67;;
5876;SDS011;2964;42.144;24.730;2023-02-28T00:22:50;16.43;;;10.70;;
5876;SDS011;2964;42.144;24.730;2023-02-28T00:25:19;19.77;;;11.40;;
5876;SDS011;2964;42.144;24.730;2023-02-28T00:27:47;18.83;;;11.57;;
5876;SDS011;2964;42.144;24.730;2023-02-28T00:30:15;12.73;;;10.80;;
5876;SDS011;2964;42.144;24.730;2023-02-28T00:32:43;13.60;;;11.40;;
5876;SDS011;2964;42.144;24.730;2023-02-28T00:35:11;18.40;;;13.50;;
5876;SDS011;2964;42.144;24.730;2023-02-28T00:37:38;15.00;;;11.10;;
5876;SDS011;2964;42.144;24.730;2023-02-28T00:40:06;17.07;;;11.47;;
5876;SDS011;2964;42.144;24.730;2023-02-28T00:42:34;13.73;;;11.37;;
5876;SDS011;2964;42.144;24.730;2023-02-28T00:45:01;14.20;;;11.57;;
5876;SDS011;2964;42.144;24.730;2023-02-28T00:47:29;15.93;;;11.20;;
5876;SDS011;2964;42.144;24.730;2023-02-28T00:49:56;13.10;;;11.77;;
5876;SDS011;2964;42.144;24.730;2023-02-28T00:52:24;17.97;;;11.53;;
5876;SDS011;2964;42.144;24.730;2023-02-28T00:54:51;18.10;;;12.20;;
5876;SDS011;2964;42.144;24.730;2023-02-28T00:57:17;16.33;;;10.43;;
5876;SDS011;2964;42.144;24.730;2023-02-28T00:59:44;13.60;;;11.30;;
5876;SDS011;2964;42.144;24.730;2023-02-28T01:02:11;26.67;;;12.57;;
5876;SDS011;2964;42.144;24.730;2023-02-28T01:04:37;12.90;;;11.17;;
5876;SDS011;2964;42.144;24.730;2023-02-28T01:07:04;14.87;;;11.37;;
5876;SDS011;2964;42.144;24.730;2023-02-28T01:09:32;16.67;;;11.90;;
5876;SDS011;2964;42.144;24.730;2023-02-28T01:11:59;15.80;;;12.03;;
5876;SDS011;2964;42.144;24.730;2023-02-28T01:14:25;15.57;;;11.63;;
5876;SDS011;2964;42.144;24.730;2023-02-28T01:16:52;17.17;;;11.17;;
5876;SDS011;2964;42.144;24.730;2023-02-28T01:19:19;16.17;;;11.40;;
5876;SDS011;2964;42.144;24.730;2023-02-28T01:21:45;23.07;;;12.53;;
5876;SDS011;2964;42.144;24.730;2023-02-28T01:24:12;16.47;;;12.10;;
5876;SDS011;2964;42.144;24.730;2023-02-28T01:26:40;18.47;;;12.07;;
5876;SDS011;2964;42.144;24.730;2023-02-28T01:29:07;20.60;;;12.27;;
5876;SDS011;2964;42.144;24.730;2023-02-28T01:31:34;12.97;;;11.07;;
5876;SDS011;2964;42.144;24.730;2023-02-28T01:34:01;13.80;;;11.27;;
5876;SDS011;2964;42.144;24.730;2023-02-28T01:36:27;19.03;;;11.77;;
5876;SDS011;2964;42.144;24.730;2023-02-28T01:38:55;20.73;;;11.77;;
5876;SDS011;2964;42.144;24.730;2023-02-28T01:41:22;14.10;;;11.20;;
5876;SDS011;2964;42.144;24.730;2023-02-28T01:44:00;18.03;;;11.70;;
5876;SDS011;2964;42.144;24.730;2023-02-28T01:46:29;17.83;;;11.70;;
5876;SDS011;2964;42.144;24.730;2023-02-28T01:49:00;21.23;;;11.50;;
5876;SDS011;2964;42.144;24.730;2023-02-28T01:51:33;26.30;;;11.83;;
5876;SDS011;2964;42.144;24.730;2023-02-28T01:54:04;18.23;;;12.47;;
5876;SDS011;2964;42.144;24.730;2023-02-28T01:56:39;19.10;;;11.53;;
5876;SDS011;2964;42.144;24.730;2023-02-28T01:59:11;21.37;;;11.40;;
5876;SDS011;2964;42.144;24.730;2023-02-28T02:01:41;14.40;;;10.30;;
5876;SDS011;2964;42.144;24.730;2023-02-28T02:04:08;21.57;;;11.47;;
5876;SDS011;2964;42.144;24.730;2023-02-28T02:06:36;15.97;;;10.67;;
5876;SDS011;2964;42.144;24.730;2023-02-28T02:09:06;17.50;;;11.03;;
5876;SDS011;2964;42.144;24.730;2023-02-28T02:11:33;17.90;;;10.53;;
5876;SDS011;2964;42.144;24.730;2023-02-28T02:14:15;17.67;;;12.03;;
5876;SDS011;2964;42.144;24.730;2023-02-28T02:16:59;20.77;;;13.20;;
5876;SDS011;2964;42.144;24.730;2023-02-28T02:19:41;15.97;;;12.30;;
5876;SDS011;2964;42.144;24.730;2023-02-28T02:22:36;18.97;;;12.03;;
5876;SDS011;2964;42.144;24.730;2023-02-28T02:25:33;16.03;;;12.13;;
5876;SDS011;2964;42.144;24.730;2023-02-28T02:37:14;12.73;;;11.47;;
5876;SDS011;2964;42.144;24.730;2023-02-28T02:39:51;14.10;;;11.73;;
5876;SDS011;2964;42.144;24.730;2023-02-28T02:42:23;18.47;;;12.67;;
5876;SDS011;2964;42.144;24.730;2023-02-28T02:44:55;20.90;;;12.43;;
5876;SDS011;2964;42.144;24.730;2023-02-28T02:47:27;22.50;;;13.47;;
5876;SDS011;2964;42.144;24.730;2023-02-28T02:49:59;18.83;;;12.37;;
5876;SDS011;2964;42.144;24.730;2023-02-28T02:52:41;22.63;;;12.13;;
5876;SDS011;2964;42.144;24.730;2023-02-28T02:55:11;16.23;;;11.50;;
5876;SDS011;2964;42.144;24.730;2023-02-28T02:57:40;15.53;;;12.30;;
5876;SDS011;2964;42.144;24.730;2023-02-28T03:00:12;17.57;;;13.30;;
5876;SDS011;2964;42.144;24.730;2023-02-28T03:02:41;18.27;;;12.40;;
5876;SDS011;2964;42.144;24.730;2023-02-28T03:05:14;18.93;;;13.20;;
5876;SDS011;2964;42.144;24.730;2023-02-28T03:07:46;15.13;;;12.63;;
5876;SDS011;2964;42.144;24.730;2023-02-28T03:10:27;17.37;;;13.07;;
5876;SDS011;2964;42.144;24.730;2023-02-28T03:12:58;19.73;;;13.80;;
5876;SDS011;2964;42.144;24.730;2023-02-28T03:15:36;16.47;;;13.73;;
5876;SDS011;2964;42.144;24.730;2023-02-28T03:18:14;19.03;;;14.50;;
5876;SDS011;2964;42.144;24.730;2023-02-28T03:20:51;18.00;;;13.00;;
5876;SDS011;2964;42.144;24.730;2023-02-28T03:23:28;20.57;;;14.80;;
5876;SDS011;2964;42.144;24.730;2023-02-28T03:26:02;19.27;;;13.03;;
5876;SDS011;2964;42.144;24.730;2023-02-28T03:28:34;16.87;;;13.97;;
5876;SDS011;2964;42.144;24.730;2023-02-28T03:31:10;22.17;;;15.03;;
5876;SDS011;2964;42.144;24.730;2023-02-28T03:33:42;24.70;;;14.63;;
5876;SDS011;2964;42.144;24.730;2023-02-28T03:36:21;18.27;;;14.67;;
5876;SDS011;2964;42.144;24.730;2023-02-28T03:38:53;22.53;;;15.57;;
5876;SDS011;2964;42.144;24.730;2023-02-28T03:41:29;23.03;;;14.80;;
5876;SDS011;2964;42.144;24.730;2023-02-28T03:44:02;20.13;;;14.73;;
5876;SDS011;2964;42.144;24.730;2023-02-28T03:46:34;17.70;;;14.17;;
5876;SDS011;2964;42.144;24.730;2023-02-28T03:49:05;17.97;;;14.30;;
5876;SDS011;2964;42.144;24.730;2023-02-28T03:51:40;20.17;;;16.40;;
5876;SDS011;2964;42.144;24.730;2023-02-28T03:54:09;17.90;;;15.77;;
5876;SDS011;2964;42.144;24.730;2023-02-28T03:56:42;16.07;;;13.10;;
5876;SDS011;2964;42.144;24.730;2023-02-28T03:59:15;20.53;;;16.10;;
5876;SDS011;2964;42.144;24.730;2023-02-28T04:01:48;16.67;;;14.70;;
5876;SDS011;2964;42.144;24.730;2023-02-28T04:04:17;19.80;;;16.10;;
5876;SDS011;2964;42.144;24.730;2023-02-28T04:06:45;22.23;;;16.50;;
5876;SDS011;2964;42.144;24.730;2023-02-28T04:09:15;20.00;;;15.57;;
5876;SDS011;2964;42.144;24.730;2023-02-28T04:11:42;23.83;;;15.70;;
5876;SDS011;2964;42.144;24.730;2023-02-28T04:14:12;21.93;;;13.97;;
5876;SDS011;2964;42.144;24.730;2023-02-28T04:16:39;22.30;;;16.17;;
5876;SDS011;2964;42.144;24.730;2023-02-28T04:19:08;20.57;;;15.23;;
5876;SDS011;2964;42.144;24.730;2023-02-28T04:21:37;16.00;;;13.97;;
5876;SDS011;2964;42.144;24.730;2023-02-28T04:24:07;20.70;;;15.20;;
5876;SDS011;2964;42.144;24.730;2023-02-28T04:26:39;17.20;;;13.97;;
5876;SDS011;2964;42.144;24.730;2023-02-28T04:29:08;23.33;;;13.70;;
5876;SDS011;2964;42.144;24.730;2023-02-28T04:31:36;27.93;;;14.83;;
5876;SDS011;2964;42.144;24.730;2023-02-28T04:34:03;16.57;;;14.17;;
5876;SDS011;2964;42.144;24.730;2023-02-28T04:36:30;19.10;;;15.43;;
5876;SDS011;2964;42.144;24.730;2023-02-28T04:38:57;19.07;;;15.00;;
5876;SDS011;2964;42.144;24.730;2023-02-28T04:41:25;22.33;;;14.93;;
5876;SDS011;2964;42.144;24.730;2023-02-28T04:43:52;17.40;;;13.97;;
5876;SDS011;2964;42.144;24.730;2023-02-28T04:46:19;19.60;;;15.03;;
5876;SDS011;2964;42.144;24.730;2023-02-28T04:48:46;17.77;;;14.20;;
5876;SDS011;2964;42.144;24.730;2023-02-28T04:51:14;18.67;;;14.83;;
5876;SDS011;2964;42.144;24.730;2023-02-28T04:53:43;19.53;;;15.63;;
5876;SDS011;2964;42.144;24.730;2023-02-28T04:56:10;21.00;;;15.13;;
5876;SDS011;2964;42.144;24.730;2023-02-28T04:58:40;17.43;;;15.27;;
5876;SDS011;2964;42.144;24.730;2023-02-28T05:01:13;21.17;;;15.17;;
5876;SDS011;2964;42.144;24.730;2023-02-28T05:03:43;18.10;;;15.30;;
5876;SDS011;2964;42.144;24.730;2023-02-28T05:06:10;17.07;;;13.97;;
5876;SDS011;2964;42.144;24.730;2023-02-28T05:08:38;19.87;;;15.23;;
5876;SDS011;2964;42.144;24.730;2023-02-28T05:11:05;17.00;;;15.00;;
5876;SDS011;2964;42.144;24.730;2023-02-28T05:13:40;21.03;;;15.87;;
5876;SDS011;2964;42.144;24.730;2023-02-28T05:16:06;20.67;;;15.03;;
5876;SDS011;2964;42.144;24.730;2023-02-28T05:18:33;21.53;;;14.63;;
5876;SDS011;2964;42.144;24.730;2023-02-28T05:21:00;18.57;;;14.00;;
5876;SDS011;2964;42.144;24.730;2023-02-28T05:23:27;17.07;;;14.37;;
5876;SDS011;2964;42.144;24.730;2023-02-28T05:25:54;13.43;;;12.10;;
5876;SDS011;2964;42.144;24.730;2023-02-28T05:28:20;14.83;;;13.17;;
5876;SDS011;2964;42.144;24.730;2023-02-28T05:30:49;16.70;;;15.10;;
5876;SDS011;2964;42.144;24.730;2023-02-28T05:33:16;17.30;;;13.70;;
5876;SDS011;2964;42.144;24.730;2023-02-28T05:35:42;15.00;;;13.50;;
5876;SDS011;2964;42.144;24.730;2023-02-28T05:38:09;15.87;;;13.90;;
5876;SDS011;2964;42.144;24.730;2023-02-28T05:40:37;19.00;;;13.83;;
5876;SDS011;2964;42.144;24.730;2023-02-28T05:43:05;21.03;;;15.30;;
5876;SDS011;2964;42.144;24.730;2023-02-28T05:45:31;21.50;;;14.13;;
5876;SDS011;2964;42.144;24.730;2023-02-28T05:48:00;16.00;;;13.97;;
5876;SDS011;2964;42.144;24.730;2023-02-28T05:50:26;15.63;;;14.00;;
5876;SDS011;2964;42.144;24.730;2023-02-28T05:52:53;16.53;;;13.37;;
5876;SDS011;2964;42.144;24.730;2023-02-28T05:55:20;15.90;;;14.17;;
5876;SDS011;2964;42.144;24.730;2023-02-28T05:57:46;17.77;;;12.97;;
5876;SDS011;2964;42.144;24.730;2023-02-28T06:00:13;16.43;;;14.73;;
5876;SDS011;2964;42.144;24.730;2023-02-28T06:02:42;17.90;;;14.47;;
5876;SDS011;2964;42.144;24.730;2023-02-28T06:05:13;19.90;;;15.67;;
5876;SDS011;2964;42.144;24.730;2023-02-28T06:07:41;17.53;;;13.50;;
5876;SDS011;2964;42.144;24.730;2023-02-28T06:10:08;17.37;;;15.40;;
5876;SDS011;2964;42.144;24.730;2023-02-28T06:12:36;20.03;;;16.33;;
5876;SDS011;2964;42.144;24.730;2023-02-28T06:15:03;19.50;;;15.53;;
5876;SDS011;2964;42.144;24.730;2023-02-28T06:17:30;15.70;;;13.67;;
5876;SDS011;2964;42.144;24.730;2023-02-28T06:19:57;20.13;;;17.43;;
5876;SDS011;2964;42.144;24.730;2023-02-28T06:22:25;21.30;;;15.87;;
5876;SDS011;2964;42.144;24.730;2023-02-28T06:24:52;23.27;;;16.23;;
5876;SDS011;2964;42.144;24.730;2023-02-28T06:27:19;17.53;;;14.73;;
5876;SDS011;2964;42.144;24.730;2023-02-28T06:29:47;19.40;;;17.40;;
5876;SDS011;2964;42.144;24.730;2023-02-28T06:32:13;23.73;;;18.27;;
5876;SDS011;2964;42.144;24.730;2023-02-28T06:34:40;22.60;;;16.53;;
5876;SDS011;2964;42.144;24.730;2023-02-28T06:37:07;20.47;;;17.20;;
5876;SDS011;2964;42.144;24.730;2023-02-28T06:39:35;25.47;;;17.67;;
5876;SDS011;2964;42.144;24.730;2023-02-28T06:42:01;19.20;;;16.77;;
5876;SDS011;2964;42.144;24.730;2023-02-28T06:44:28;22.30;;;16.47;;
5876;SDS011;2964;42.144;24.730;2023-02-28T06:47:00;17.83;;;15.17;;
5876;SDS011;2964;42.144;24.730;2023-02-28T06:49:27;24.43;;;19.17;;
5876;SDS011;2964;42.144;24.730;2023-02-28T06:51:54;21.70;;;16.57;;
5876;SDS011;2964;42.144;24.730;2023-02-28T06:54:21;27.87;;;16.90;;
5876;SDS011;2964;42.144;24.730;2023-02-28T06:56:49;24.60;;;16.60;;
5876;SDS011;2964;42.144;24.730;2023-02-28T06:59:15;18.60;;;16.27;;
5876;SDS011;2964;42.144;24.730;2023-02-28T07:01:42;21.43;;;17.67;;
5876;SDS011;2964;42.144;24.730;2023-02-28T07:04:09;20.40;;;16.27;;
5876;SDS011;2964;42.144;24.730;2023-02-28T07:06:36;17.67;;;15.50;;
5876;SDS011;2964;42.144;24.730;2023-02-28T07:09:02;20.67;;;16.73;;
5876;SDS011;2964;42.144;24.730;2023-02-28T07:11:30;23.40;;;19.20;;
5876;SDS011;2964;42.144;24.730;2023-02-28T07:13:58;31.27;;;18.67;;
5876;SDS011;2964;42.144;24.730;2023-02-28T07:16:25;22.80;;;17.53;;
5876;SDS011;2964;42.144;24.730;2023-02-28T07:18:53;25.63;;;16.67;;
5876;SDS011;2964;42.144;24.730;2023-02-28T07:21:20;18.17;;;14.50;;
5876;SDS011;2964;42.144;24.730;2023-02-28T07:23:47;24.03;;;17.67;;
5876;SDS011;2964;42.144;24.730;2023-02-28T07:26:15;22.53;;;17.47;;
5876;SDS011;2964;42.144;24.730;2023-02-28T07:28:43;25.80;;;21.03;;
5876;SDS011;2964;42.144;24.730;2023-02-28T07:31:13;27.50;;;18.20;;
5876;SDS011;2964;42.144;24.730;2023-02-28T07:33:41;19.87;;;17.13;;
5876;SDS011;2964;42.144;24.730;2023-02-28T07:36:09;26.40;;;18.60;;
5876;SDS011;2964;42.144;24.730;2023-02-28T07:38:40;25.90;;;18.53;;
5876;SDS011;2964;42.144;24.730;2023-02-28T07:41:07;18.73;;;14.63;;
5876;SDS011;2964;42.144;24.730;2023-02-28T07:43:34;23.43;;;19.60;;
5876;SDS011;2964;42.144;24.730;2023-02-28T07:46:02;28.50;;;19.40;;
5876;SDS011;2964;42.144;24.730;2023-02-28T07:48:31;27.60;;;19.10;;
5876;SDS011;2964;42.144;24.730;2023-02-28T07:50:58;24.67;;;19.87;;
5876;SDS011;2964;42.144;24.730;2023-02-28T07:53:26;34.33;;;21.73;;
5876;SDS011;2964;42.144;24.730;2023-02-28T07:55:54;26.67;;;19.57;;
5876;SDS011;2964;42.144;24.730;2023-02-28T07:58:21;27.77;;;19.97;;
5876;SDS011;2964;42.144;24.730;2023-02-28T08:00:48;26.13;;;20.60;;
5876;SDS011;2964;42.144;24.730;2023-02-28T08:03:15;28.50;;;21.20;;
5876;SDS011;2964;42.144;24.730;2023-02-28T08:05:44;25.33;;;20.30;;
5876;SDS011;2964;42.144;24.730;2023-02-28T08:08:10;25.27;;;18.90;;
5876;SDS011;2964;42.144;24.730;2023-02-28T08:10:37;26.57;;;20.17;;
5876;SDS011;2964;42.144;24.730;2023-02-28T08:13:04;30.63;;;20.67;;
5876;SDS011;2964;42.144;24.730;2023-02-28T08:15:30;27.87;;;19.10;;
5876;SDS011;2964;42.144;24.730;2023-02-28T08:17:57;25.00;;;19.70;;
5876;SDS011;2964;42.144;24.730;2023-02-28T08:20:24;39.37;;;24.37;;
5876;SDS011;2964;42.144;24.730;2023-02-28T08:22:53;35.53;;;22.67;;
5876;SDS011;2964;42.144;24.730;2023-02-28T08:25:20;29.00;;;21.80;;
5876;SDS011;2964;42.144;24.730;2023-02-28T08:27:46;30.43;;;19.10;;
5876;SDS011;2964;42.144;24.730;2023-02-28T08:30:13;29.67;;;23.43;;
5876;SDS011;2964;42.144;24.730;2023-02-28T08:32:41;37.57;;;22.87;;
5876;SDS011;2964;42.144;24.730;2023-02-28T08:35:08;29.93;;;21.00;;
5876;SDS011;2964;42.144;24.730;2023-02-28T08:37:35;32.90;;;20.70;;
5876;SDS011;2964;42.144;24.730;2023-02-28T08:40:04;34.40;;;21.57;;
5876;SDS011;2964;42.144;24.730;2023-02-28T08:42:31;32.17;;;21.20;;
5876;SDS011;2964;42.144;24.730;2023-02-28T08:44:58;37.30;;;23.30;;
5876;SDS011;2964;42.144;24.730;2023-02-28T08:47:25;28.27;;;21.17;;
5876;SDS011;2964;42.144;24.730;2023-02-28T08:49:52;35.40;;;22.50;;
5876;SDS011;2964;42.144;24.730;2023-02-28T08:52:18;25.27;;;20.43;;
5876;SDS011;2964;42.144;24.730;2023-02-28T08:54:46;35.80;;;24.27;;
5876;SDS011;2964;42.144;24.730;2023-02-28T08:57:14;30.03;;;21.53;;
5876;SDS011;2964;42.144;24.730;2023-02-28T08:59:41;28.43;;;20.93;;
5876;SDS011;2964;42.144;24.730;2023-02-28T09:02:08;37.73;;;23.80;;
5876;SDS011;2964;42.144;24.730;2023-02-28T09:04:36;32.50;;;24.43;;
5876;SDS011;2964;42.144;24.730;2023-02-28T09:07:02;36.63;;;23.93;;
5876;SDS011;2964;42.144;24.730;2023-02-28T09:09:29;37.10;;;24.23;;
5876;SDS011;2964;42.144;24.730;2023-02-28T09:11:56;34.07;;;22.53;;
5876;SDS011;2964;42.144;24.730;2023-02-28T09:14:24;31.57;;;22.13;;
5876;SDS011;2964;42.144;24.730;2023-02-28T09:16:51;26.07;;;20.73;;
5876;SDS011;2964;42.144;24.730;2023-02-28T09:19:18;34.00;;;22.97;;
5876;SDS011;2964;42.144;24.730;2023-02-28T09:21:44;35.70;;;22.73;;
5876;SDS011;2964;42.144;24.730;2023-02-28T09:24:11;32.67;;;23.27;;
5876;SDS011;2964;42.144;24.730;2023-02-28T09:26:40;36.07;;;24.30;;
5876;SDS011;2964;42.144;24.730;2023-02-28T09:29:07;32.30;;;25.93;;
5876;SDS011;2964;42.144;24.730;2023-02-28T09:31:35;29.10;;;21.43;;
5876;SDS011;2964;42.144;24.730;2023-02-28T09:34:04;34.13;;;24.60;;
5876;SDS011;2964;42.144;24.730;2023-02-28T09:36:31;36.40;;;24.40;;
5876;SDS011;2964;42.144;24.730;2023-02-28T09:38:58;28.87;;;21.80;;
5876;SDS011;2964;42.144;24.730;2023-02-28T09:41:25;26.10;;;20.83;;
5876;SDS011;2964;42.144;24.730;2023-02-28T09:43:56;29.03;;;22.67;;
5876;SDS011;2964;42.144;24.730;2023-02-28T09:46:29;31.53;;;22.73;;
5876;SDS011;2964;42.144;24.730;2023-02-28T09:49:02;41.37;;;23.27;;
5876;SDS011;2964;42.144;24.730;2023-02-28T09:51:34;28.17;;;21.87;;
5876;SDS011;2964;42.144;24.730;2023-02-28T09:54:11;31.70;;;23.07;;
5876;SDS011;2964;42.144;24.730;2023-02-28T09:56:44;32.17;;;24.13;;
5876;SDS011;2964;42.144;24.730;2023-02-28T09:59:18;35.37;;;23.97;;
5876;SDS011;2964;42.144;24.730;2023-02-28T10:01:56;36.07;;;24.10;;
5876;SDS011;2964;42.144;24.730;2023-02-28T10:04:35;30.97;;;22.33;;
5876;SDS011;2964;42.144;24.730;2023-02-28T10:07:11;30.30;;;24.60;;
5876;SDS011;2964;42.144;24.730;2023-02-28T10:09:46;42.63;;;26.13;;
5876;SDS011;2964;42.144;24.730;2023-02-28T10:12:18;38.83;;;24.37;;
5876;SDS011;2964;42.144;24.730;2023-02-28T10:14:46;38.67;;;24.23;;
5876;SDS011;2964;42.144;24.730;2023-02-28T10:17:16;36.23;;;25.33;;
5876;SDS011;2964;42.144;24.730;2023-02-28T10:19:49;39.77;;;26.07;;
5876;SDS011;2964;42.144;24.730;2023-02-28T10:22:26;33.60;;;25.23;;
5876;SDS011;2964;42.144;24.730;2023-02-28T10:24:58;42.10;;;25.80;;
5876;SDS011;2964;42.144;24.730;2023-02-28T10:27:29;34.77;;;25.17;;
5876;SDS011;2964;42.144;24.730;2023-02-28T10:29:57;37.67;;;26.83;;
5876;SDS011;2964;42.144;24.730;2023-02-28T10:32:26;38.30;;;26.63;;
5876;SDS011;2964;42.144;24.730;2023-02-28T10:34:57;32.70;;;23.00;;
5876;SDS011;2964;42.144;24.730;2023-02-28T10:37:25;37.07;;;21.97;;
5876;SDS011;2964;42.144;24.730;2023-02-28T10:39:52;44.07;;;25.30;;
5876;SDS011;2964;42.144;24.730;2023-02-28T10:42:21;34.87;;;22.57;;
5876;SDS011;2964;42.144;24.730;2023-02-28T10:45:04;38.63;;;25.10;;
5876;SDS011;2964;42.144;24.730;2023-02-28T10:47:33;40.73;;;26.20;;
5876;SDS011;2964;42.144;24.730;2023-02-28T10:50:03;41.37;;;28.47;;
5876;SDS011;2964;42.144;24.730;2023-02-28T10:52:35;40.67;;;26.87;;
5876;SDS011;2964;42.144;24.730;2023-02-28T10:55:15;39.97;;;26.23;;
5876;SDS011;2964;42.144;24.730;2023-02-28T10:57:46;40.03;;;27.07;;
5876;SDS011;2964;42.144;24.730;2023-02-28T11:00:14;38.67;;;26.43;;
5876;SDS011;2964;42.144;24.730;2023-02-28T11:02:43;40.90;;;26.53;;
5876;SDS011;2964;42.144;24.730;2023-02-28T11:05:25;43.97;;;26.93;;
5876;SDS011;2964;42.144;24.730;2023-02-28T11:07:54;32.50;;;25.73;;
5876;SDS011;2964;42.144;24.730;2023-02-28T11:10:24;37.10;;;25.37;;
5876;SDS011;2964;42.144;24.730;2023-02-28T11:12:55;33.07;;;22.87;;
5876;SDS011;2964;42.144;24.730;2023-02-28T11:15:23;36.93;;;21.97;;
5876;SDS011;2964;42.144;24.730;2023-02-28T11:17:54;36.13;;;22.77;;
5876;SDS011;2964;42.144;24.730;2023-02-28T11:20:26;43.67;;;26.63;;
5876;SDS011;2964;42.144;24.730;2023-02-28T11:22:56;37.43;;;24.97;;
5876;SDS011;2964;42.144;24.730;2023-02-28T11:25:26;35.60;;;23.07;;
5876;SDS011;2964;42.144;24.730;2023-02-28T11:27:56;31.57;;;24.60;;
5876;SDS011;2964;42.144;24.730;2023-02-28T11:30:28;40.33;;;26.30;;
5876;SDS011;2964;42.144;24.730;2023-02-28T11:32:58;30.80;;;23.53;;
5876;SDS011;2964;42.144;24.730;2023-02-28T11:35:28;42.47;;;27.47;;
5876;SDS011;2964;42.144;24.730;2023-02-28T11:37:58;35.17;;;25.23;;
5876;SDS011;2964;42.144;24.730;2023-02-28T11:40:28;40.03;;;26.53;;
5876;SDS011;2964;42.144;24.730;2023-02-28T11:43:02;39.43;;;27.33;;
5876;SDS011;2964;42.144;24.730;2023-02-28T11:45:38;35.73;;;28.03;;
5876;SDS011;2964;42.144;24.730;2023-02-28T11:48:13;38.23;;;27.93;;
5876;SDS011;2964;42.144;24.730;2023-02-28T11:50:52;38.77;;;25.93;;
5876;SDS011;2964;42.144;24.730;2023-02-28T11:53:31;35.87;;;25.27;;
5876;SDS011;2964;42.144;24.730;2023-02-28T11:56:09;42.07;;;28.30;;
5876;SDS011;2964;42.144;24.730;2023-02-28T11:58:44;42.70;;;30.93;;
5876;SDS011;2964;42.144;24.730;2023-02-28T12:04:23;40.93;;;26.27;;
5876;SDS011;2964;42.144;24.730;2023-02-28T12:07:00;40.97;;;29.00;;
5876;SDS011;2964;42.144;24.730;2023-02-28T12:09:41;46.17;;;30.67;;
5876;SDS011;2964;42.144;24.730;2023-02-28T12:12:17;43.80;;;29.40;;
5876;SDS011;2964;42.144;24.730;2023-02-28T12:18:09;55.47;;;34.50;;
5876;SDS011;2964;42.144;24.730;2023-02-28T12:20:49;58.07;;;33.07;;
5876;SDS011;2964;42.144;24.730;2023-02-28T12:23:36;44.77;;;31.00;;
5876;SDS011;2964;42.144;24.730;2023-02-28T12:26:26;65.43;;;35.83;;
5876;SDS011;2964;42.144;24.730;2023-02-28T12:29:02;63.97;;;36.50;;
5876;SDS011;2964;42.144;24.730;2023-02-28T12:31:35;56.50;;;35.07;;
5876;SDS011;2964;42.144;24.730;2023-02-28T12:34:05;53.07;;;34.03;;
5876;SDS011;2964;42.144;24.730;2023-02-28T12:36:35;52.40;;;33.60;;
5876;SDS011;2964;42.144;24.730;2023-02-28T12:39:07;50.17;;;30.27;;
5876;SDS011;2964;42.144;24.730;2023-02-28T12:41:39;53.93;;;32.90;;
5876;SDS011;2964;42.144;24.730;2023-02-28T12:44:11;52.43;;;35.40;;
5876;SDS011;2964;42.144;24.730;2023-02-28T12:46:43;61.30;;;35.43;;
5876;SDS011;2964;42.144;24.730;2023-02-28T12:49:15;54.97;;;36.13;;
5876;SDS011;2964;42.144;24.730;2023-02-28T12:51:44;61.47;;;36.57;;
5876;SDS011;2964;42.144;24.730;2023-02-28T12:54:16;59.37;;;38.60;;
5876;SDS011;2964;42.144;24.730;2023-02-28T12:56:51;60.30;;;38.00;;
5876;SDS011;2964;42.144;24.730;2023-02-28T12:59:25;60.40;;;40.07;;
5876;SDS011;2964;42.144;24.730;2023-02-28T13:02:02;70.17;;;40.33;;
5876;SDS011;2964;42.144;24.730;2023-02-28T13:04:56;54.27;;;35.77;;
5876;SDS011;2964;42.144;24.730;2023-02-28T13:07:40;59.23;;;38.40;;
5876;SDS011;2964;42.144;24.730;2023-02-28T13:10:38;58.03;;;38.07;;
5876;SDS011;2964;42.144;24.730;2023-02-28T13:13:11;53.20;;;33.37;;
5876;SDS011;2964;42.144;24.730;2023-02-28T13:15:41;56.63;;;35.57;;
5876;SDS011;2964;42.144;24.730;2023-02-28T13:18:28;58.07;;;33.97;;
5876;SDS011;2964;42.144;24.730;2023-02-28T13:20:57;52.93;;;34.17;;
5876;SDS011;2964;42.144;24.730;2023-02-28T13:29:35;51.37;;;30.00;;
5876;SDS011;2964;42.144;24.730;2023-02-28T13:44:06;53.60;;;35.50;;
5876;SDS011;2964;42.144;24.730;2023-02-28T13:46:38;60.83;;;37.40;;
5876;SDS011;2964;42.144;24.730;2023-02-28T13:49:41;62.63;;;36.60;;
5876;SDS011;2964;42.144;24.730;2023-02-28T13:52:10;51.00;;;33.93;;
5876;SDS011;2964;42.144;24.730;2023-02-28T13:54:45;55.83;;;35.10;;
5876;SDS011;2964;42.144;24.730;2023-02-28T13:57:38;50.13;;;33.03;;
5876;SDS011;2964;42.144;24.730;2023-02-28T14:00:16;62.90;;;36.43;;
5876;SDS011;2964;42.144;24.730;2023-02-28T14:06:07;55.73;;;37.20;;
5876;SDS011;2964;42.144;24.730;2023-02-28T14:08:44;57.53;;;35.93;;
5876;SDS011;2964;42.144;24.730;2023-02-28T14:11:28;58.10;;;37.20;;
5876;SDS011;2964;42.144;24.730;2023-02-28T14:13:57;63.20;;;38.00;;
5876;SDS011;2964;42.144;24.730;2023-02-28T14:49:43;41.33;;;30.23;;
5876;SDS011;2964;42.144;24.730;2023-02-28T14:52:13;43.93;;;29.00;;
5876;SDS011;2964;42.144;24.730;2023-02-28T14:54:45;41.17;;;28.47;;
5876;SDS011;2964;42.144;24.730;2023-02-28T14:57:21;40.60;;;27.87;;
5876;SDS011;2964;42.144;24.730;2023-02-28T14:59:56;36.40;;;27.77;;
5876;SDS011;2964;42.144;24.730;2023-02-28T15:02:25;33.77;;;25.67;;
5876;SDS011;2964;42.144;24.730;2023-02-28T15:04:59;33.17;;;26.00;;
5876;SDS011;2964;42.144;24.730;2023-02-28T15:07:27;36.13;;;25.43;;
5876;SDS011;2964;42.144;24.730;2023-02-28T15:10:17;35.50;;;24.70;;
5876;SDS011;2964;42.144;24.730;2023-02-28T15:12:47;28.53;;;22.80;;
5876;SDS011;2964;42.144;24.730;2023-02-28T15:15:18;36.70;;;23.07;;
5876;SDS011;2964;42.144;24.730;2023-02-28T15:17:48;33.87;;;22.07;;
5876;SDS011;2964;42.144;24.730;2023-02-28T15:20:20;31.13;;;23.87;;
5876;SDS011;2964;42.144;24.730;2023-02-28T15:22:48;32.00;;;23.47;;
5876;SDS011;2964;42.144;24.730;2023-02-28T15:25:19;37.03;;;25.13;;
5876;SDS011;2964;42.144;24.730;2023-02-28T15:27:48;32.13;;;24.00;;
5876;SDS011;2964;42.144;24.730;2023-02-28T15:30:17;34.50;;;24.50;;
5876;SDS011;2964;42.144;24.730;2023-02-28T15:33:00;40.17;;;26.43;;
5876;SDS011;2964;42.144;24.730;2023-02-28T15:35:31;35.67;;;23.93;;
5876;SDS011;2964;42.144;24.730;2023-02-28T15:38:00;28.57;;;20.93;;
5876;SDS011;2964;42.144;24.730;2023-02-28T15:40:31;32.07;;;21.83;;
5876;SDS011;2964;42.144;24.730;2023-02-28T15:42:59;31.60;;;20.73;;
5876;SDS011;2964;42.144;24.730;2023-02-28T15:45:35;32.10;;;23.30;;
5876;SDS011;2964;42.144;24.730;2023-02-28T15:48:09;31.87;;;23.37;;
5876;SDS011;2964;42.144;24.730;2023-02-28T15:50:43;31.07;;;21.73;;
5876;SDS011;2964;42.144;24.730;2023-02-28T15:53:14;33.27;;;19.03;;
5876;SDS011;2964;42.144;24.730;2023-02-28T15:55:43;29.30;;;20.63;;
5876;SDS011;2964;42.144;24.730;2023-02-28T15:58:11;33.50;;;23.57;;
5876;SDS011;2964;42.144;24.730;2023-02-28T16:00:39;31.97;;;20.23;;
5876;SDS011;2964;42.144;24.730;2023-02-28T16:03:22;36.30;;;22.57;;